createdAt,value
2022-08-21T00:01:34.073Z,3.75
2022-08-21T00:04:07.293Z,3.95
2022-08-21T00:06:34.075Z,4.22
2022-08-21T00:09:06.331Z,4.32
2022-08-21T00:11:35.236Z,4.55
2022-08-21T00:14:01.502Z,5.07
2022-08-21T00:16:27.570Z,4.68
2022-08-21T00:18:53.708Z,4.55
2022-08-21T00:21:19.578Z,4.28
2022-08-21T00:23:45.612Z,4.20
2022-08-21T00:26:11.701Z,4.60
2022-08-21T00:28:37.636Z,4.47
2022-08-21T00:31:04.175Z,4.30
2022-08-21T00:33:31.574Z,4.80
2022-08-21T00:35:57.945Z,4.60
2022-08-21T00:38:23.916Z,5.18
2022-08-21T00:41:02.750Z,5.00
2022-08-21T00:46:11.742Z,5.30
2022-08-21T00:48:37.578Z,5.65
2022-08-21T00:51:11.652Z,3.97
2022-08-21T00:53:42.250Z,5.05
2022-08-21T00:56:10.463Z,5.18
2022-08-21T00:58:41.615Z,4.93
2022-08-21T01:01:09.979Z,4.60
2022-08-21T01:03:36.363Z,4.43
2022-08-21T01:06:04.500Z,4.60
2022-08-21T01:08:30.840Z,4.40
2022-08-21T01:10:57.301Z,4.90
2022-08-21T01:13:24.736Z,4.70
2022-08-21T01:15:52.980Z,5.25
2022-08-21T01:18:20.931Z,5.18
2022-08-21T01:21:00.715Z,4.75
2022-08-21T01:23:26.751Z,5.43
2022-08-21T01:25:52.654Z,5.00
2022-08-21T01:28:21.311Z,5.72
2022-08-21T01:30:48.905Z,5.43
2022-08-21T01:33:14.721Z,5.25
2022-08-21T01:35:40.615Z,5.30
2022-08-21T01:38:06.693Z,5.50
2022-08-21T01:40:32.822Z,4.80
2022-08-21T01:42:58.787Z,4.72
2022-08-21T01:45:24.776Z,5.03
2022-08-21T01:47:50.654Z,5.90
2022-08-21T01:50:19.120Z,4.72
2022-08-21T01:52:44.965Z,4.22
2022-08-21T01:55:13.185Z,4.88
2022-08-21T01:57:39.216Z,4.50
2022-08-21T02:00:09.105Z,4.65
2022-08-21T02:02:34.938Z,4.85
2022-08-21T02:05:00.795Z,5.57
2022-08-21T02:07:26.691Z,4.80
2022-08-21T02:09:52.478Z,4.55
2022-08-21T02:12:19.532Z,4.35
2022-08-21T02:14:45.335Z,4.20
2022-08-21T02:17:11.144Z,4.32
2022-08-21T02:19:40.444Z,4.63
2022-08-21T02:22:10.261Z,4.00
2022-08-21T02:24:54.517Z,4.32
2022-08-21T02:27:26.147Z,4.73
2022-08-21T02:29:52.405Z,5.20
2022-08-21T02:32:18.178Z,4.13
2022-08-21T02:34:43.973Z,5.07
2022-08-21T02:37:09.805Z,5.03
2022-08-21T02:39:35.638Z,4.85
2022-08-21T02:42:01.490Z,4.78
2022-08-21T02:44:30.158Z,5.20
2022-08-21T02:47:00.546Z,4.80
2022-08-21T02:49:26.370Z,4.93
2022-08-21T02:51:52.270Z,5.90
2022-08-21T02:54:18.104Z,5.05
2022-08-21T02:56:43.888Z,5.20
2022-08-21T02:59:09.706Z,4.95
2022-08-21T03:01:36.760Z,5.20
2022-08-21T03:04:02.726Z,4.82
2022-08-21T03:06:29.608Z,5.28
2022-08-21T03:08:55.462Z,4.97
2022-08-21T03:11:21.348Z,5.18
2022-08-21T03:13:47.355Z,5.55
2022-08-21T03:16:13.182Z,4.22
2022-08-21T03:18:39.238Z,5.43
2022-08-21T03:21:06.709Z,5.25
2022-08-21T03:23:32.946Z,5.82
2022-08-21T03:25:59.562Z,4.43
2022-08-21T03:28:25.717Z,4.95
2022-08-21T03:30:52.434Z,4.45
2022-08-21T03:33:20.656Z,4.32
2022-08-21T03:36:00.801Z,4.97
2022-08-21T03:38:29.736Z,4.85
2022-08-21T03:40:55.554Z,4.82
2022-08-21T03:43:21.680Z,5.03
2022-08-21T03:45:47.639Z,4.35
2022-08-21T03:48:13.581Z,3.95
2022-08-21T03:50:42.995Z,4.07
2022-08-21T03:53:16.595Z,4.78
2022-08-21T03:55:43.422Z,4.65
2022-08-21T03:58:16.058Z,4.13
2022-08-21T04:00:45.618Z,4.32
2022-08-21T04:03:11.537Z,4.03
2022-08-21T04:05:37.736Z,4.15
2022-08-21T04:08:05.438Z,4.65
2022-08-21T04:10:34.881Z,3.85
2022-08-21T04:13:01.120Z,4.13
2022-08-21T04:15:27.484Z,4.32
2022-08-21T04:17:53.806Z,4.10
2022-08-21T04:20:21.759Z,5.65
2022-08-21T04:22:48.650Z,4.75
2022-08-21T04:25:15.716Z,4.47
2022-08-21T04:27:42.599Z,5.13
2022-08-21T04:30:09.901Z,4.82
2022-08-21T04:32:37.822Z,4.70
2022-08-21T04:35:07.901Z,4.72
2022-08-21T04:37:33.957Z,4.72
2022-08-21T04:40:09.671Z,5.03
2022-08-21T04:42:46.679Z,4.30
2022-08-21T04:45:22.282Z,4.05
2022-08-21T04:47:53.155Z,5.05
2022-08-21T04:50:22.345Z,4.32
2022-08-21T04:52:48.489Z,5.35
2022-08-21T04:55:16.723Z,5.03
2022-08-21T04:57:48.823Z,5.10
2022-08-21T05:00:18.810Z,5.25
2022-08-21T05:02:46.013Z,5.25
2022-08-21T05:05:12.056Z,5.88
2022-08-21T05:07:42.744Z,4.80
2022-08-21T05:10:12.385Z,4.07
2022-08-21T05:12:39.751Z,4.28
2022-08-21T05:15:05.946Z,4.00
2022-08-21T05:17:32.025Z,3.95
2022-08-21T05:19:57.832Z,4.50
2022-08-21T05:22:24.600Z,4.38
2022-08-21T05:24:51.329Z,3.80
2022-08-21T05:27:17.808Z,4.15
2022-08-21T05:29:44.189Z,3.63
2022-08-21T05:32:12.065Z,4.40
2022-08-21T05:34:38.371Z,21.63
2022-08-21T05:37:07.695Z,5.47
2022-08-21T05:40:21.122Z,4.95
2022-08-21T05:42:19.530Z,4.10
2022-08-21T05:44:45.455Z,3.97
2022-08-21T05:47:11.956Z,3.97
2022-08-21T05:49:38.350Z,4.45
2022-08-21T05:52:04.714Z,4.00
2022-08-21T05:54:30.793Z,3.97
2022-08-21T05:56:57.461Z,3.83
2022-08-21T05:59:23.885Z,4.07
2022-08-21T06:01:52.774Z,3.90
2022-08-21T06:04:18.659Z,3.80
2022-08-21T06:06:44.465Z,4.50
2022-08-21T06:09:10.506Z,3.88
2022-08-21T06:11:36.511Z,3.53
2022-08-21T06:14:02.486Z,4.18
2022-08-21T06:16:29.390Z,3.15
2022-08-21T06:18:59.465Z,3.85
2022-08-21T06:21:27.987Z,3.65
2022-08-21T06:23:53.841Z,4.05
2022-08-21T06:26:20.381Z,4.45
2022-08-21T06:28:46.911Z,3.92
2022-08-21T06:31:23.920Z,3.80
2022-08-21T06:33:50.630Z,3.83
2022-08-21T06:36:18.981Z,4.07
2022-08-21T06:38:51.103Z,4.20
2022-08-21T06:41:18.970Z,3.95
2022-08-21T06:43:50.817Z,4.05
2022-08-21T06:46:16.639Z,4.03
2022-08-21T06:48:42.484Z,4.57
2022-08-21T06:51:08.329Z,3.88
2022-08-21T06:53:34.348Z,3.50
2022-08-21T06:56:00.195Z,3.88
2022-08-21T06:58:26.171Z,3.53
2022-08-21T07:00:52.067Z,3.60
2022-08-21T07:03:39.820Z,3.40
2022-08-21T07:06:08.104Z,4.53
2022-08-21T07:08:35.034Z,3.83
2022-08-21T07:11:07.196Z,4.25
2022-08-21T07:13:33.311Z,3.58
2022-08-21T07:16:03.638Z,3.45
2022-08-21T07:18:30.016Z,3.33
2022-08-21T07:20:56.082Z,3.35
2022-08-21T07:23:33.762Z,4.43
2022-08-21T07:26:00.799Z,3.42
2022-08-21T07:28:27.847Z,3.42
2022-08-21T07:30:56.180Z,4.28
2022-08-21T07:33:22.489Z,3.60
2022-08-21T07:35:48.347Z,3.88
2022-08-21T07:38:14.187Z,3.85
2022-08-21T07:40:39.990Z,3.45
2022-08-21T07:43:05.900Z,4.68
2022-08-21T07:45:32.365Z,3.85
2022-08-21T07:47:58.233Z,3.50
2022-08-21T07:50:24.696Z,3.58
2022-08-21T07:52:51.293Z,3.70
2022-08-21T07:55:20.106Z,4.13
2022-08-21T07:57:47.048Z,3.63
2022-08-21T08:00:16.380Z,2.92
2022-08-21T08:02:45.957Z,3.80
2022-08-21T08:05:12.424Z,3.60
2022-08-21T08:07:39.156Z,3.40
2022-08-21T08:10:07.331Z,3.60
2022-08-21T08:12:34.824Z,3.88
2022-08-21T08:15:02.685Z,2.85
2022-08-21T08:17:28.724Z,3.33
2022-08-21T08:19:55.628Z,3.38
2022-08-21T08:22:26.074Z,3.50
2022-08-21T08:24:53.057Z,2.70
2022-08-21T08:27:19.784Z,3.70
2022-08-21T08:29:46.339Z,3.60
2022-08-21T08:32:12.804Z,4.18
2022-08-21T08:34:40.074Z,3.40
2022-08-21T08:37:08.558Z,3.90
2022-08-21T08:39:34.592Z,4.13
2022-08-21T08:42:33.433Z,4.20
2022-08-21T08:45:06.921Z,3.97
2022-08-21T08:47:39.824Z,3.88
2022-08-21T08:50:28.265Z,4.20
2022-08-21T08:53:02.305Z,4.03
2022-08-21T08:55:35.469Z,4.25
2022-08-21T08:58:02.957Z,4.55
2022-08-21T09:00:29.501Z,4.63
2022-08-21T09:02:59.031Z,4.55
2022-08-21T09:05:40.420Z,4.90
2022-08-21T09:08:35.104Z,4.47
2022-08-21T09:11:03.357Z,4.38
2022-08-21T09:13:47.577Z,3.78
2022-08-21T09:16:42.497Z,3.63
2022-08-21T09:19:33.227Z,3.35
2022-08-21T09:22:08.964Z,3.17
2022-08-21T09:25:08.230Z,4.07
2022-08-21T09:27:34.644Z,3.78
2022-08-21T09:30:00.670Z,3.95
2022-08-21T09:32:36.754Z,3.58
2022-08-21T09:35:16.102Z,2.88
2022-08-21T09:37:52.135Z,3.30
2022-08-21T09:40:43.526Z,3.50
2022-08-21T09:43:12.865Z,3.38
2022-08-21T09:45:42.206Z,3.03
2022-08-21T09:48:13.901Z,3.30
2022-08-21T09:50:40.397Z,2.83
2022-08-21T09:53:17.382Z,3.55
2022-08-21T09:56:15.511Z,3.33
2022-08-21T09:58:45.032Z,2.72
2022-08-21T10:01:23.496Z,3.05
2022-08-21T10:04:03.690Z,2.90
2022-08-21T10:06:29.652Z,3.03
2022-08-21T10:09:19.863Z,3.03
2022-08-21T10:12:01.191Z,2.28
2022-08-21T10:15:00.616Z,3.00
2022-08-21T10:17:55.101Z,3.47
2022-08-21T10:20:38.037Z,3.22
2022-08-21T10:23:14.422Z,3.00
2022-08-21T10:26:13.157Z,2.42
2022-08-21T10:29:06.696Z,2.70
2022-08-21T10:31:47.040Z,2.55
2022-08-21T10:34:38.928Z,2.70
2022-08-21T10:37:23.153Z,2.60
2022-08-21T10:40:06.051Z,2.75
2022-08-21T10:42:52.570Z,2.78
2022-08-21T10:45:21.271Z,2.92
2022-08-21T10:47:58.013Z,2.13
2022-08-21T10:50:50.689Z,2.08
2022-08-21T10:53:17.123Z,2.55
2022-08-21T10:56:12.168Z,2.53
2022-08-21T10:58:45.646Z,2.40
2022-08-21T11:01:34.157Z,2.38
2022-08-21T11:04:49.183Z,2.50
2022-08-21T11:07:26.594Z,2.15
2022-08-21T11:10:01.879Z,2.15
2022-08-21T11:12:41.130Z,3.10
2022-08-21T11:15:28.961Z,2.72
2022-08-21T11:18:23.949Z,1.88
2022-08-21T11:21:05.331Z,2.03
2022-08-21T11:23:41.677Z,2.17
2022-08-21T11:26:19.211Z,2.05
2022-08-21T11:28:56.061Z,1.90
2022-08-21T11:31:38.464Z,1.60
2022-08-21T11:34:35.532Z,1.90
2022-08-21T11:37:22.327Z,1.70
2022-08-21T11:39:50.850Z,1.92
2022-08-21T11:42:24.411Z,1.77
2022-08-21T11:45:09.212Z,1.73
2022-08-21T11:48:06.292Z,1.42
2022-08-21T11:50:35.605Z,1.40
2022-08-21T11:53:09.474Z,1.63
2022-08-21T11:55:57.352Z,1.58
2022-08-21T11:58:29.804Z,1.77
2022-08-21T12:01:01.238Z,1.70
2022-08-21T12:03:31.182Z,1.65
2022-08-21T12:05:58.787Z,1.55
2022-08-21T12:08:29.524Z,1.63
2022-08-21T12:11:17.031Z,2.03
2022-08-21T12:14:07.467Z,1.85
2022-08-21T12:16:35.152Z,1.63
2022-08-21T12:19:07.233Z,1.67
2022-08-21T12:21:33.897Z,1.77
2022-08-21T12:24:05.841Z,1.95
2022-08-21T12:26:59.669Z,1.50
2022-08-21T12:29:37.492Z,1.73
2022-08-21T12:32:20.586Z,1.65
2022-08-21T12:34:55.908Z,1.55
2022-08-21T12:37:47.760Z,1.50
2022-08-21T12:40:30.203Z,1.77
2022-08-21T12:42:59.384Z,1.55
2022-08-21T12:45:33.034Z,1.60
2022-08-21T12:48:14.594Z,1.63
2022-08-21T12:51:00.810Z,2.13
2022-08-21T12:53:48.101Z,1.38
2022-08-21T12:56:18.012Z,1.30
2022-08-21T12:58:52.575Z,1.40
2022-08-21T13:01:41.721Z,1.25
2022-08-21T13:04:13.888Z,1.30
2022-08-21T13:06:50.206Z,1.45
2022-08-21T13:09:20.670Z,1.10
2022-08-21T13:11:49.672Z,1.10
2022-08-21T13:14:29.399Z,1.20
2022-08-21T13:16:58.949Z,1.55
2022-08-21T13:19:25.889Z,1.30
2022-08-21T13:21:52.864Z,1.25
2022-08-21T13:27:39.549Z,1.23
2022-08-21T13:30:13.114Z,1.70
2022-08-21T13:32:48.894Z,0.88
2022-08-21T13:35:17.187Z,0.98
2022-08-21T13:37:44.908Z,1.20
2022-08-21T13:40:15.167Z,0.90
2022-08-21T13:42:44.289Z,1.55
2022-08-21T13:45:23.453Z,1.08
2022-08-21T13:47:49.959Z,0.80
2022-08-21T13:50:18.429Z,1.17
2022-08-21T13:52:55.303Z,1.17
2022-08-21T13:55:25.162Z,1.30
2022-08-21T13:58:02.126Z,0.90
2022-08-21T14:00:30.950Z,0.90
2022-08-21T14:03:06.119Z,1.20
2022-08-21T14:05:35.628Z,1.35
2022-08-21T14:08:22.970Z,0.90
2022-08-21T14:10:57.707Z,0.82
2022-08-21T14:13:29.791Z,0.80
2022-08-21T14:15:59.599Z,1.50
2022-08-21T14:18:26.269Z,1.00
2022-08-21T14:21:03.575Z,0.95
2022-08-21T14:23:29.547Z,1.38
2022-08-21T14:26:00.843Z,0.93
2022-08-21T14:28:34.121Z,1.40
2022-08-21T14:31:13.313Z,1.10
2022-08-21T14:33:39.193Z,1.08
2022-08-21T14:36:05.435Z,1.40
2022-08-21T14:38:32.702Z,1.00
2022-08-21T14:41:08.734Z,1.20
2022-08-21T14:43:34.593Z,1.38
2022-08-21T14:46:00.995Z,1.10
2022-08-21T14:48:26.954Z,1.08
2022-08-21T14:50:55.949Z,1.02
2022-08-21T14:53:24.297Z,0.90
2022-08-21T14:56:05.464Z,1.85
2022-08-21T14:58:36.423Z,0.88
2022-08-21T15:01:04.221Z,1.10
2022-08-21T15:03:31.252Z,1.00
2022-08-21T15:05:57.531Z,1.23
2022-08-21T15:08:23.342Z,1.13
2022-08-21T15:11:10.484Z,1.10
2022-08-21T15:13:36.516Z,1.17
2022-08-21T15:16:02.474Z,1.02
2022-08-21T15:18:30.071Z,1.33
2022-08-21T15:20:56.127Z,1.50
2022-08-21T15:23:22.494Z,0.90
2022-08-21T15:25:49.505Z,1.08
2022-08-21T15:28:17.267Z,1.00
2022-08-21T15:30:44.189Z,1.00
2022-08-21T15:33:10.201Z,0.90
2022-08-21T15:35:38.120Z,1.13
2022-08-21T15:38:07.077Z,1.20
2022-08-21T15:40:38.432Z,1.13
2022-08-21T15:43:05.629Z,1.38
2022-08-21T15:45:33.079Z,1.10
2022-08-21T15:47:59.527Z,0.60
2022-08-21T15:50:26.572Z,0.80
2022-08-21T15:52:52.996Z,1.20
2022-08-21T15:55:21.002Z,0.85
2022-08-21T15:57:57.922Z,1.00
2022-08-21T16:00:24.962Z,1.17
2022-08-21T16:02:54.258Z,0.85
2022-08-21T16:05:20.917Z,0.90
2022-08-21T16:07:48.423Z,1.20
2022-08-21T16:10:16.678Z,0.80
2022-08-21T16:12:48.219Z,1.10
2022-08-21T16:15:20.131Z,0.98
2022-08-21T16:17:49.102Z,0.98
2022-08-21T16:20:26.373Z,1.33
2022-08-21T16:22:53.842Z,1.00
2022-08-21T16:25:21.116Z,1.70
2022-08-21T16:27:55.270Z,1.30
2022-08-21T16:30:26.181Z,0.75
2022-08-21T16:32:52.235Z,0.95
2022-08-21T16:35:20.228Z,0.82
2022-08-21T16:37:49.976Z,1.17
2022-08-21T16:40:18.511Z,0.93
2022-08-21T16:42:45.589Z,1.00
2022-08-21T16:45:14.487Z,1.00
2022-08-21T16:47:40.812Z,1.00
2022-08-21T16:50:08.256Z,0.75
2022-08-21T16:52:35.017Z,0.80
2022-08-21T16:55:01.288Z,0.73
2022-08-21T16:57:27.492Z,1.00
2022-08-21T16:59:53.691Z,1.30
2022-08-21T17:02:34.837Z,0.90
2022-08-21T17:05:01.971Z,0.80
2022-08-21T17:07:28.416Z,0.70
2022-08-21T17:09:54.691Z,1.30
2022-08-21T17:12:20.962Z,1.02
2022-08-21T17:14:47.972Z,1.02
2022-08-21T17:17:14.411Z,1.10
2022-08-21T17:19:41.498Z,1.00
2022-08-21T17:22:08.732Z,1.20
2022-08-21T17:24:35.802Z,1.13
2022-08-21T17:27:03.958Z,0.88
2022-08-21T17:29:35.928Z,0.98
2022-08-21T17:32:03.236Z,1.20
2022-08-21T17:34:31.109Z,1.00
2022-08-21T17:36:57.781Z,0.93
2022-08-21T17:39:26.495Z,1.02
2022-08-21T17:41:57.781Z,1.52
2022-08-21T17:44:24.583Z,1.08
2022-08-21T17:46:50.454Z,0.90
2022-08-21T17:49:16.435Z,1.13
2022-08-21T17:51:42.581Z,0.98
2022-08-21T17:54:08.588Z,1.27
2022-08-21T17:56:36.430Z,0.98
2022-08-21T17:59:03.970Z,1.08
2022-08-21T18:01:33.884Z,1.10
2022-08-21T18:04:00.012Z,1.50
2022-08-21T18:06:26.263Z,0.90
2022-08-21T18:08:52.157Z,1.10
2022-08-21T18:11:23.679Z,0.82
2022-08-21T18:13:53.437Z,1.33
2022-08-21T18:16:20.336Z,1.00
2022-08-21T18:18:48.265Z,1.10
2022-08-21T18:21:15.007Z,1.02
2022-08-21T18:23:44.189Z,0.73
2022-08-21T18:26:14.191Z,1.10
2022-08-21T18:28:40.702Z,1.23
2022-08-21T18:31:10.150Z,1.40
2022-08-21T18:33:38.201Z,1.75
2022-08-21T18:36:04.834Z,1.20
2022-08-21T18:38:30.897Z,1.20
2022-08-21T18:40:58.878Z,1.45
2022-08-21T18:43:25.840Z,1.40
2022-08-21T18:45:51.848Z,1.33
2022-08-21T18:48:18.106Z,1.10
2022-08-21T18:50:45.801Z,1.35
2022-08-21T18:53:18.351Z,1.40
2022-08-21T18:55:54.090Z,1.13
2022-08-21T18:58:22.937Z,1.30
2022-08-21T19:00:50.510Z,0.90
2022-08-21T19:03:22.792Z,1.30
2022-08-21T19:05:51.688Z,1.55
2022-08-21T19:08:19.812Z,1.35
2022-08-21T19:10:47.734Z,1.08
2022-08-21T19:13:17.112Z,1.23
2022-08-21T19:15:46.251Z,1.45
2022-08-21T19:18:14.697Z,1.10
2022-08-21T19:20:41.475Z,1.15
2022-08-21T19:23:10.177Z,1.30
2022-08-21T19:25:41.889Z,0.98
2022-08-21T19:28:11.728Z,1.35
2022-08-21T19:30:45.937Z,1.13
2022-08-21T19:33:23.152Z,1.15
2022-08-21T19:35:51.068Z,1.00
2022-08-21T19:38:20.211Z,1.50
2022-08-21T19:40:46.376Z,1.40
2022-08-21T19:43:12.654Z,1.80
2022-08-21T19:45:38.507Z,1.05
2022-08-21T19:48:05.734Z,1.30
2022-08-21T19:50:31.704Z,1.50
2022-08-21T19:52:57.839Z,1.15
2022-08-21T19:55:24.162Z,1.20
2022-08-21T19:57:51.919Z,1.63
2022-08-21T20:00:17.739Z,1.17
2022-08-21T20:02:58.785Z,1.50
2022-08-21T20:05:24.757Z,1.05
2022-08-21T20:08:04.626Z,1.30
2022-08-21T20:10:30.508Z,1.52
2022-08-21T20:12:56.408Z,0.95
2022-08-21T20:15:22.470Z,1.60
2022-08-21T20:17:50.041Z,1.33
2022-08-21T20:20:16.105Z,1.58
2022-08-21T20:22:41.968Z,1.30
2022-08-21T20:25:08.146Z,1.60
2022-08-21T20:30:23.025Z,1.45
2022-08-21T20:32:49.168Z,1.17
2022-08-21T20:35:15.213Z,1.27
2022-08-21T20:37:41.451Z,1.05
2022-08-21T20:40:10.035Z,1.50
2022-08-21T20:42:41.453Z,1.40
2022-08-21T20:45:11.559Z,1.52
2022-08-21T20:47:38.153Z,1.40
2022-08-21T20:50:13.613Z,1.30
2022-08-21T20:52:41.736Z,1.35
2022-08-21T20:55:14.597Z,1.55
2022-08-21T20:58:05.930Z,1.48
2022-08-21T21:00:36.241Z,1.85
2022-08-21T21:03:34.794Z,1.60
2022-08-21T21:06:05.944Z,1.77
2022-08-21T21:08:51.881Z,1.25
2022-08-21T21:11:27.592Z,1.83
2022-08-21T21:14:03.428Z,1.65
2022-08-21T21:16:41.457Z,1.40
2022-08-21T21:19:36.999Z,1.40
2022-08-21T21:22:23.678Z,1.17
2022-08-21T21:25:03.797Z,1.30
2022-08-21T21:27:37.733Z,1.50
2022-08-21T21:30:12.106Z,1.50
2022-08-21T21:32:41.025Z,1.00
2022-08-21T21:35:07.866Z,0.95
2022-08-21T21:37:38.397Z,0.98
2022-08-21T21:40:22.940Z,1.48
2022-08-21T21:43:02.320Z,1.33
2022-08-21T21:45:40.035Z,1.13
2022-08-21T21:48:23.814Z,1.60
2022-08-21T21:51:00.849Z,1.35
2022-08-21T21:53:54.161Z,1.43
2022-08-21T21:56:40.666Z,1.50
2022-08-21T22:02:39.595Z,1.83
2022-08-21T22:05:16.846Z,1.65
2022-08-21T22:07:54.242Z,1.20
2022-08-21T22:10:49.130Z,1.50
2022-08-21T22:13:38.519Z,1.33
2022-08-21T22:16:05.836Z,1.85
2022-08-21T22:18:45.001Z,1.17
2022-08-21T22:21:19.136Z,1.30
2022-08-21T22:23:53.161Z,1.50
2022-08-21T22:26:26.327Z,1.23
2022-08-21T22:28:52.935Z,1.52
2022-08-21T22:31:30.799Z,1.90
2022-08-21T22:33:59.461Z,1.25
2022-08-21T22:36:30.242Z,1.67
2022-08-21T22:38:56.120Z,1.80
2022-08-21T22:41:28.815Z,1.67
2022-08-21T22:44:01.617Z,1.88
2022-08-21T22:46:41.490Z,1.48
2022-08-21T22:49:14.776Z,1.40
2022-08-21T22:51:45.875Z,1.67
2022-08-21T22:54:22.093Z,1.90
2022-08-21T22:56:58.392Z,1.63
2022-08-21T22:59:31.701Z,1.90
2022-08-21T23:02:19.361Z,1.48
2022-08-21T23:04:49.497Z,1.58
2022-08-21T23:07:43.060Z,2.30
2022-08-21T23:10:32.919Z,1.70
2022-08-21T23:16:15.772Z,1.70
2022-08-21T23:18:56.736Z,1.65
2022-08-21T23:21:27.754Z,2.03
2022-08-21T23:24:28.593Z,1.70
2022-08-21T23:27:14.145Z,1.98
2022-08-21T23:30:07.285Z,1.60
2022-08-21T23:32:47.065Z,1.85
2022-08-21T23:35:51.891Z,1.58
2022-08-21T23:38:50.579Z,1.88
2022-08-21T23:41:38.235Z,1.50
2022-08-21T23:44:15.325Z,1.60
2022-08-21T23:46:59.035Z,2.33
2022-08-21T23:49:54.719Z,1.88
2022-08-21T23:52:45.564Z,1.25
2022-08-21T23:55:32.364Z,1.83
2022-08-21T23:58:38.074Z,1.52
